ASIAQ
Weather Now
GREENLAND SURVEY
Sorting:
| Location |
Updated [WGT/WGST] |
Temperature [°C] |
Wind [m/s] |
Air pressure [hPa] |
Relative humidity [%] |
Precipitation [mm] |
| Present | Wind chill | Speed | Max |
| Qaanaaq | 06.09 16:00 | 4,1 | 1,3 | 3,2 ⇘ | 4,2 | 993 | 83 | 0,0 |
| Kitsissut | 06.09 16:00 | 1,7 | 0,1 | 1,5 ⇓ | 2,1 | 993 | 97 | n/a |
| Kitsissorsuit | 06.09 16:00 | n/a | n/a | 14,9 ⇖ | 20,6 | 993 | 78 | n/a |
| Upernavik | 06.09 16:00 | 12,1 | 10,0 | 5,7 ⇑ | 9,2 | 984 | 62 | 0,0 |
| Qaarsut | 06.09 16:00 | 11,7 | 7,7 | 15,0 ⇖ | 17,9 | 992 | 49 | 0,0 |
| Nuussuaq | 06.09 16:00 | 10,3 | 6,2 | 12,4 ⇖ | 16,5 | 997 | 60 | n/a |
| Qeqertarsuaq | 06.09 16:00 | 10,0 | 6,8 | 7,4 ⇐ | 10,8 | 1005 | 57 | 0,1 |
| Ilulissat | 06.09 16:00 | 15,8 | 15,0 | 4,7 ⇑ | 7,1 | 1003 | 35 | 0,0 |
| Qasigiannguit | 06.09 16:00 | 16,4 | 15,3 | 6,4 ⇑ | 8,8 | 1004 | 35 | n/a |
| Aasiaat | 06.09 16:00 | 14,7 | 13,1 | 6,4 ⇖ | 11,5 | 1001 | 50 | 0,0 |
| Kangerlussuaq | 06.09 16:00 | 13,1 | 12,0 | 3,5 ⇗ | 4,4 | 1002 | 37 | n/a |
| Sisimiut | 06.09 16:00 | 10,9 | 8,8 | 4,6 ⇖ | 5,7 | 1008 | 53 | 0,0 |
| Maniitsoq | 06.09 16:00 | 12,0 | 10,5 | 3,8 ⇐ | 5,3 | 1008 | 32 | 0,0 |
| Sioralik | 06.09 16:00 | n/a | n/a | 5,1 ⇑ | 5,7 | 1011 | 63 | n/a |
| Niaqornaa | 06.09 15:00 | 11,2 | 10,9 | 1,5 ⇐ | 3,5 | 1006 | 34 | n/a |
| Qeqertannguaq | 06.09 16:00 | 10,2 | n/a | 0,7 ⇘ | 1,2 | n/a | 50 | n/a |
| Kapisillit | 06.09 16:00 | 13,1 | n/a | 0,8 ⇐ | 1,9 | 1003 | 36 | 0,0 |
| Kuanninnguit | 06.09 16:00 | 10,8 | 11,9 | 0,9 ⇒ | 2,1 | 1006 | 54 | n/a |
| Nuuk City | 06.09 16:10 | n/a | n/a | 5,0 ⇑ | 6,7 | n/a | n/a | n/a |
| Ukiiviit | 06.09 16:00 | n/a | n/a | 3,6 ⇘ | 4,1 | 1010 | 87 | n/a |
| Paamiut | 06.09 16:00 | 8,6 | 6,0 | 4,8 ⇒ | 5,7 | 1008 | 73 | 0,0 |
| Narsarsuaq | 06.09 16:00 | 12,3 | 11,4 | 2,8 ⇒ | 3,7 | 1008 | 42 | n/a |
| Narsaq | 06.09 16:00 | 9,6 | 8,9 | 1,8 ⇒ | 3,1 | 1009 | 55 | 0,0 |
| Nunarsuit | 06.09 16:00 | 7,0 | n/a | 5,1 ⇒ | 7,2 | 1009 | 87 | n/a |
| Upernaviarsuk | 06.09 16:00 | 9,6 | 8,1 | 2,9 ⇗ | 4,5 | 1011 | 78 | n/a |
| Qaqortoq | 06.09 16:00 | 8,4 | 5,9 | 4,3 ⇗ | 6,3 | 1005 | 76 | 0,0 |
| Angisoq | 06.09 16:00 | n/a | n/a | 6,7 ⇘ | 8,2 | 1010 | 98 | n/a |
| Prins Christian Sund | 06.09 16:00 | 12,7 | 11,1 | 4,6 ⇗ | 6,7 | 997 | 40 | n/a |
| Nanortalik | 06.09 16:00 | 8,9 | 7,9 | 2,0 ⇙ | 4,2 | 1010 | 70 | n/a |
| Ikermiuarsuk | 06.09 16:00 | 9,0 | n/a | 9,8 ⇓ | 11,8 | 1000 | 45 | n/a |
| Ikermit | 06.09 16:00 | n/a | n/a | 7,7 ⇘ | 9,8 | 993 | 37 | n/a |
| Kulusuk | 06.09 16:00 | 8,1 | 6,1 | 3,1 ⇒ | 4,2 | 998 | 51 | n/a |
| Tasiilaq | 06.09 16:00 | 11,3 | n/a | 0,6 ⇓ | 2,1 | 995 | 43 | 0,0 |
| Aputiteeq | 06.09 16:00 | 4,2 | 0,0 | 5,7 ⇒ | 6,7 | 998 | 71 | n/a |
| Ittoqqortoormiit | 06.09 16:00 | n/a | n/a | 2,4 ⇒ | 7,3 | 990 | 61 | n/a |
| Nerlerit Inaat | 06.09 16:00 | 12,2 | n/a | 1,0 ⇗ | 1,0 | 997 | 29 | n/a |
| Daneborg | 06.09 16:00 | 7,1 | 5,0 | 3,0 ⇗ | 5,0 | 995 | 56 | n/a |
| Zackenberg | 06.09 12:00 | n/a | n/a | 3,9 ⇖ | 4,7 | n/a | n/a | n/a |
| Danmarkshavn | 06.09 16:00 | n/a | n/a | n/a | 19,0 | n/a | n/a | n/a |
| Henrik Krøyer Holme | 06.09 16:00 | n/a | n/a | 2,0 ⇒ | 2,0 | 999 | 91 | n/a |
| Station Nord | 06.09 16:00 | n/a | n/a | 3,0 ⇘ | 4,0 | 997 | 91 | n/a |
| Kap Morris Jesup | 06.09 16:00 | n/a | n/a | n/a | n/a | 1000 | 91 | n/a |
Advanced version ⤻
Data source - Operated by - Disclaimer ▼